Time;durP1;ratioP1;P1;durP2;ratioP2;P2;SDS_P1;SDS_P2;PMS_P1;PMS_P2;Temp;Humidity;BMP_temperature;BMP_pressure;BME280_temperature;BME280_humidity;BME280_pressure;Samples;Min_cycle;Max_cycle;Signal;HPM_P1;HPM_P2
2021/04/06 00:00:32;;;;;;;;;;;;;;;15.77;63.55;100186.75;5027809;28;1889;-59
2021/04/06 00:02:58;;;;;;;;;;;;;;;15.72;63.22;100178.28;5027975;28;1632;-59
2021/04/06 00:05:24;;;;;;;;;;;;;;;15.71;63.14;100177.41;5030173;28;929;-56
2021/04/06 00:07:51;;;;;;;;;;;;;;;15.72;62.42;100178.28;5029465;28;1736;-56
2021/04/06 00:10:22;;;;;;;;;;;;;;;15.71;62.23;100177.41;5022991;28;1512;-56
2021/04/06 00:12:50;;;;;;;;;;;;;;;15.75;62.85;100175.38;5031327;28;1609;-56
2021/04/06 00:15:15;;;;;;;;;;;;;;;15.70;62.86;100166.91;5027465;28;1559;-56
2021/04/06 00:17:44;;;;;;;;;;;;;;;15.70;63.21;100161.56;5028288;28;1613;-56
2021/04/06 00:20:10;;;;;;;;;;;;;;;15.69;63.06;100158.03;5029454;28;1500;-56
2021/04/06 00:22:37;;;;;;;;;;;;;;;15.69;62.30;100168.69;5029348;28;1906;-59
2021/04/06 00:25:04;;;;;;;;;;;;;;;15.70;63.06;100153.56;5025986;28;786;-59
2021/04/06 00:27:31;;;;;;;;;;;;;;;15.72;62.41;100162.28;5020739;28;1541;-56
2021/04/06 00:30:06;;;;;;;;;;;;;;;15.67;62.47;100164.47;5028993;28;1621;-56
2021/04/06 00:32:32;;;;;;;;;;;;;;;15.71;62.30;100144.59;5024600;28;1705;-59
2021/04/06 00:34:59;;;;;;;;;;;;;;;15.70;62.10;100137.56;5028930;28;1616;-56
2021/04/06 00:37:25;;;;;;;;;;;;;;;15.67;62.48;100128.00;5028051;28;1695;-56
2021/04/06 00:40:05;;;;;;;;;;;;;;;15.73;63.27;100125.84;5026494;28;829;-59
2021/04/06 00:42:31;;;;;;;;;;;;;;;15.68;62.92;100123.53;5020769;28;1899;-58
2021/04/06 00:44:58;;;;;;;;;;;;;;;15.66;62.61;100110.34;5028092;28;1499;-56
2021/04/06 00:47:25;;;;;;;;;;;;;;;15.71;62.67;100112.59;5028446;28;1440;-59
2021/04/06 00:49:51;;;;;;;;;;;;;;;15.66;62.78;100101.50;5028681;28;1550;-59
2021/04/06 00:52:17;;;;;;;;;;;;;;;15.68;62.80;100102.22;5026612;28;1503;-60
2021/04/06 00:54:42;;;;;;;;;;;;;;;15.70;62.58;100100.25;5027615;28;810;-59
2021/04/06 00:57:07;;;;;;;;;;;;;;;15.65;62.59;100079.31;5020177;28;1752;-59
2021/04/06 00:59:33;;;;;;;;;;;;;;;15.66;63.31;100085.50;5028226;28;1496;-59
2021/04/06 01:02:03;;;;;;;;;;;;;;;15.65;62.86;100081.97;5026556;28;1890;-56
2021/04/06 01:04:32;;;;;;;;;;;;;;;15.67;62.98;100068.53;5026744;28;1566;-56
2021/04/06 01:07:00;;;;;;;;;;;;;;;15.70;62.04;100087.78;5027771;28;802;-59
2021/04/06 01:09:33;;;;;;;;;;;;;;;15.68;62.11;100079.06;5028602;28;1740;-56
2021/04/06 01:12:01;;;;;;;;;;;;;;;15.66;63.23;100077.50;5019458;28;1522;-59
2021/04/06 01:14:27;;;;;;;;;;;;;;;15.69;62.45;100070.06;5027406;28;1361;-59
2021/04/06 01:16:53;;;;;;;;;;;;;;;15.69;63.08;100067.41;5026490;28;1558;-57
2021/04/06 01:19:19;;;;;;;;;;;;;;;15.67;62.94;100065.84;5027576;28;833;-59
2021/04/06 01:21:45;;;;;;;;;;;;;;;15.66;63.21;100057.03;5027882;28;1934;-56
2021/04/06 01:24:11;;;;;;;;;;;;;;;15.66;63.03;100061.50;5028362;28;1789;-59
2021/04/06 01:26:37;;;;;;;;;;;;;;;15.66;62.95;100061.50;5017063;28;1717;-59
2021/04/06 01:29:05;;;;;;;;;;;;;;;15.65;63.13;100043.81;5026864;28;1452;-59
2021/04/06 01:31:32;;;;;;;;;;;;;;;15.67;62.72;100042.72;5024615;28;862;-59
2021/04/06 01:33:58;;;;;;;;;;;;;;;15.64;62.10;100032.31;5028984;28;1421;-59
2021/04/06 01:36:27;;;;;;;;;;;;;;;15.63;62.07;100035.13;5027089;28;1736;-56
2021/04/06 01:38:52;;;;;;;;;;;;;;;15.65;62.90;100026.00;5025916;28;1511;-59
2021/04/06 01:41:17;;;;;;;;;;;;;;;15.64;62.81;100027.00;5018030;28;1894;-59
2021/04/06 01:43:47;;;;;;;;;;;;;;;15.65;62.26;100022.50;5027722;28;1733;-59
2021/04/06 01:46:16;;;;;;;;;;;;;;;15.60;62.75;100014.91;5027615;28;1500;-56
2021/04/06 01:48:42;;;;;;;;;;;;;;;15.62;62.16;100038.78;5026592;28;1577;-56
2021/04/06 01:51:07;;;;;;;;;;;;;;;15.62;62.73;100022.78;5025733;28;1525;-59
2021/04/06 01:53:33;;;;;;;;;;;;;;;15.62;62.79;100028.13;5025409;28;1468;-59
2021/04/06 01:56:08;;;;;;;;;;;;;;;15.65;62.55;100025.16;5020511;28;834;-59
2021/04/06 01:58:35;;;;;;;;;;;;;;;15.61;62.22;100013.09;5026469;28;1689;-59
2021/04/06 02:01:11;;;;;;;;;;;;;;;15.64;62.97;100018.16;5031448;23;2014;-44
2021/04/06 02:03:41;;;;;;;;;;;;;;;15.62;62.90;100018.28;5002605;28;2252;-45
2021/04/06 02:06:08;;;;;;;;;;;;;;;15.61;61.73;100007.75;5005739;28;1830;-45
2021/04/06 02:08:34;;;;;;;;;;;;;;;15.59;62.93;100007.88;5001221;28;833;-45
2021/04/06 02:10:59;;;;;;;;;;;;;;;15.62;62.84;100006.78;5019449;23;3506;-59
2021/04/06 02:13:24;;;;;;;;;;;;;;;15.60;62.10;100011.41;5000430;28;1581;-56
2021/04/06 02:15:57;;;;;;;;;;;;;;;15.60;62.15;100019.41;5003794;28;1530;-59
2021/04/06 02:18:23;;;;;;;;;;;;;;;15.62;62.83;100017.44;5003520;28;1465;-58
2021/04/06 02:20:55;;;;;;;;;;;;;;;15.61;62.74;100005.91;5008953;28;1910;-56
2021/04/06 02:23:21;;;;;;;;;;;;;;;15.60;62.52;100006.91;5004378;28;875;-59
2021/04/06 02:25:51;;;;;;;;;;;;;;;15.57;61.99;99985.00;5001651;28;1697;-56
2021/04/06 02:28:17;;;;;;;;;;;;;;;15.57;62.04;99979.69;5003497;28;1501;-59
2021/04/06 02:31:02;;;;;;;;;;;;;;;15.60;62.92;99995.41;5003671;28;1590;-59
2021/04/06 02:33:32;;;;;;;;;;;;;;;15.61;62.41;99989.94;5003267;28;1557;-59
2021/04/06 02:35:58;;;;;;;;;;;;;;;15.61;61.65;99989.09;5003498;28;1620;-59
2021/04/06 02:38:24;;;;;;;;;;;;;;;15.59;62.72;99991.06;5003807;28;1543;-58
2021/04/06 02:41:00;;;;;;;;;;;;;;;15.60;62.58;99972.28;5006656;28;1953;-56
2021/04/06 02:43:39;;;;;;;;;;;;;;;15.59;62.16;99969.72;5002263;28;1620;-59
2021/04/06 02:46:04;;;;;;;;;;;;;;;15.59;62.78;99969.72;4999225;28;1494;-56
2021/04/06 02:48:29;;;;;;;;;;;;;;;15.58;61.97;99957.38;5009099;28;1423;-56
2021/04/06 02:50:55;;;;;;;;;;;;;;;15.58;61.82;99947.56;5017529;28;1552;-56
2021/04/06 02:53:20;;;;;;;;;;;;;;;15.56;61.63;99956.66;5012380;28;1596;-59
2021/04/06 02:55:46;;;;;;;;;;;;;;;15.58;62.46;99968.03;5006116;28;808;-59
2021/04/06 02:58:12;;;;;;;;;;;;;;;15.56;62.08;99964.66;5004415;28;1668;-59
2021/04/06 03:00:38;;;;;;;;;;;;;;;15.58;62.76;99966.22;5002967;28;1890;-59
2021/04/06 03:03:04;;;;;;;;;;;;;;;15.60;62.15;99966.09;5003256;28;1429;-56
2021/04/06 03:05:34;;;;;;;;;;;;;;;15.58;62.65;99970.69;5002906;28;1594;-59
2021/04/06 03:08:00;;;;;;;;;;;;;;;15.59;61.86;99954.56;5002647;28;1618;-59
2021/04/06 03:10:25;;;;;;;;;;;;;;;15.58;62.59;99952.03;5007426;28;1083;-59
2021/04/06 03:12:51;;;;;;;;;;;;;;;15.59;61.96;99954.56;5009698;28;1769;-56
2021/04/06 03:15:23;;;;;;;;;;;;;;;15.54;63.12;99942.63;5007021;28;1570;-56
2021/04/06 03:17:52;;;;;;;;;;;;;;;15.58;62.97;99957.38;5007101;28;1452;-59
2021/04/06 03:20:24;;;;;;;;;;;;;;;15.55;62.59;99944.31;5005260;28;1576;-56
2021/04/06 03:22:50;;;;;;;;;;;;;;;15.50;62.06;99945.56;5005171;28;1515;-58
2021/04/06 03:25:16;;;;;;;;;;;;;;;15.56;62.68;99944.19;5007848;28;810;-56
2021/04/06 03:27:43;;;;;;;;;;;;;;;15.51;62.14;99944.56;5011754;28;1689;-56
2021/04/06 03:30:08;;;;;;;;;;;;;;;15.51;62.01;99941.06;5006698;28;1470;-59
2021/04/06 03:32:34;;;;;;;;;;;;;;;15.54;62.52;99942.63;5009016;28;1551;-56
2021/04/06 03:35:00;;;;;;;;;;;;;;;15.50;62.38;99934.91;5004334;28;1557;-59
2021/04/06 03:37:25;;;;;;;;;;;;;;;15.55;61.60;99945.16;5005850;28;1480;-59
2021/04/06 03:39:50;;;;;;;;;;;;;;;15.52;61.73;99937.44;5006305;28;830;-59
2021/04/06 03:42:22;;;;;;;;;;;;;;;15.53;62.49;99923.13;5013176;28;1895;-56
2021/04/06 03:44:48;;;;;;;;;;;;;;;15.55;61.82;99933.66;5004271;28;1672;-58
2021/04/06 03:47:13;;;;;;;;;;;;;;;15.52;63.09;99926.78;5004261;28;1485;-59
2021/04/06 03:49:45;;;;;;;;;;;;;;;15.52;62.78;99932.13;5006271;28;1497;-59
2021/04/06 03:52:10;;;;;;;;;;;;;;;15.53;62.63;99936.47;5005150;28;1599;-59
2021/04/06 03:54:37;;;;;;;;;;;;;;;15.55;61.89;99931.00;5004890;28;865;-56
2021/04/06 03:57:23;;;;;;;;;;;;;;;15.54;62.55;99929.28;5012642;28;1593;-56
2021/04/06 03:59:48;;;;;;;;;;;;;;;15.56;62.64;99932.66;4996772;28;1474;-59
2021/04/06 04:02:14;;;;;;;;;;;;;;;15.54;62.04;99922.16;5003598;28;1859;-59
2021/04/06 04:04:39;;;;;;;;;;;;;;;15.55;62.58;99936.34;5005954;28;1478;-56
2021/04/06 04:07:07;;;;;;;;;;;;;;;15.53;62.48;99939.13;5005230;28;975;-59
2021/04/06 04:09:32;;;;;;;;;;;;;;;15.55;62.14;99936.34;5004594;28;914;-59
2021/04/06 04:11:57;;;;;;;;;;;;;;;15.56;62.49;99928.22;5012248;28;1597;-56
2021/04/06 04:14:23;;;;;;;;;;;;;;;15.57;61.58;99940.53;5005401;28;1497;-59
2021/04/06 04:16:48;;;;;;;;;;;;;;;15.57;62.70;99937.03;5006793;28;1541;-56
2021/04/06 04:19:13;;;;;;;;;;;;;;;15.60;62.62;99942.94;5009824;28;1119;-56
2021/04/06 04:21:39;;;;;;;;;;;;;;;15.65;61.82;99931.88;5001686;28;1917;-59
2021/04/06 04:24:04;;;;;;;;;;;;;;;15.69;61.04;99934.13;5004225;28;1504;-56
2021/04/06 04:26:30;;;;;;;;;;;;;;;15.86;61.52;99940.69;5013646;28;1617;-59
2021/04/06 04:28:55;;;;;;;;;;;;;;;16.37;59.10;99928.16;5004472;28;1250;-56
2021/04/06 04:31:20;;;;;;;;;;;;;;;16.49;59.46;99919.06;5011132;28;1590;-56
2021/04/06 04:33:46;;;;;;;;;;;;;;;16.45;58.64;99916.81;5004285;28;1764;-59
2021/04/06 04:36:11;;;;;;;;;;;;;;;16.38;60.13;99927.19;5010594;28;1553;-56
2021/04/06 04:38:36;;;;;;;;;;;;;;;16.24;60.13;99917.78;5004231;28;1557;-56
2021/04/06 04:41:02;;;;;;;;;;;;;;;16.08;60.07;99922.81;5009950;28;1878;-56
2021/04/06 04:43:27;;;;;;;;;;;;;;;15.93;60.36;99927.66;5006079;28;1569;-56
2021/04/06 04:45:52;;;;;;;;;;;;;;;15.82;61.78;99928.63;5005112;28;1760;-56
2021/04/06 04:48:18;;;;;;;;;;;;;;;15.83;61.03;99913.47;5005197;28;1544;-59
2021/04/06 04:50:43;;;;;;;;;;;;;;;15.75;61.08;99922.13;5005134;28;1551;-59
2021/04/06 04:53:09;;;;;;;;;;;;;;;15.75;61.11;99921.28;5004870;28;1445;-56
2021/04/06 04:55:34;;;;;;;;;;;;;;;15.81;61.69;99910.91;5007380;28;1377;-56
2021/04/06 04:57:59;;;;;;;;;;;;;;;15.93;61.71;99903.66;5007230;28;1560;-59
2021/04/06 05:00:25;;;;;;;;;;;;;;;16.32;60.24;99913.56;5003430;28;1949;-56
2021/04/06 05:02:50;;;;;;;;;;;;;;;17.79;56.25;99917.69;5006745;28;1472;-56
2021/04/06 05:05:16;;;;;;;;;;;;;;;19.57;51.32;99901.69;5003299;28;1574;-59
2021/04/06 05:07:42;;;;;;;;;;;;;;;20.43;48.80;99900.63;5004887;28;1514;-60
2021/04/06 05:10:08;;;;;;;;;;;;;;;20.77;47.90;99900.56;5012488;28;1326;-56
2021/04/06 05:12:33;;;;;;;;;;;;;;;20.98;47.62;99902.69;5009246;28;1413;-56
2021/04/06 05:14:59;;;;;;;;;;;;;;;20.44;49.01;99900.47;5003739;28;1502;-59
2021/04/06 05:17:24;;;;;;;;;;;;;;;19.38;51.06;99903.63;5002684;28;1441;-59
2021/04/06 05:19:50;;;;;;;;;;;;;;;18.50;53.37;99916.97;5003207;28;1578;-56
2021/04/06 05:22:15;;;;;;;;;;;;;;;18.53;53.46;99932.75;5003477;28;1906;-60
2021/04/06 05:24:40;;;;;;;;;;;;;;;18.96;52.88;99904.38;5004273;28;1265;-59
2021/04/06 05:27:06;;;;;;;;;;;;;;;18.57;53.47;99936.81;5000844;28;1508;-59
2021/04/06 05:29:31;;;;;;;;;;;;;;;17.77;55.53;99941.91;5003797;28;1546;-59
2021/04/06 05:31:56;;;;;;;;;;;;;;;17.42;56.33;99922.03;5004293;28;1625;-59
2021/04/06 05:34:22;;;;;;;;;;;;;;;17.35;58.03;99918.28;5003432;28;826;-56
2021/04/06 05:36:47;;;;;;;;;;;;;;;17.29;57.73;99903.66;5002495;28;1820;-58
2021/04/06 05:39:13;;;;;;;;;;;;;;;17.36;57.23;99909.28;5010035;28;1729;-56
2021/04/06 05:41:42;;;;;;;;;;;;;;;17.42;57.46;99919.38;5006555;28;1940;-56
2021/04/06 05:44:08;;;;;;;;;;;;;;;17.52;57.53;99913.16;5002412;28;1502;-56
2021/04/06 05:46:35;;;;;;;;;;;;;;;17.54;56.73;99901.31;5002406;28;849;-59
2021/04/06 05:49:24;;;;;;;;;;;;;;;17.61;57.73;99896.25;5006561;28;1598;-59
2021/04/06 05:51:49;;;;;;;;;;;;;;;17.53;57.22;99902.34;5004777;28;1905;-56
2021/04/06 05:54:15;;;;;;;;;;;;;;;17.47;57.18;99890.38;5006558;28;1764;-59
2021/04/06 05:56:41;;;;;;;;;;;;;;;17.37;58.19;99881.56;5004845;28;1653;-56
2021/04/06 05:59:07;;;;;;;;;;;;;;;17.45;56.78;99892.38;5009372;28;1457;-62
2021/04/06 06:01:33;;;;;;;;;;;;;;;17.43;58.27;99888.16;5009004;28;1886;-56
2021/04/06 06:03:59;;;;;;;;;;;;;;;17.38;58.47;99883.25;5007173;28;1445;-57
2021/04/06 06:06:24;;;;;;;;;;;;;;;17.29;58.00;99868.09;5008221;28;1529;-57
2021/04/06 06:09:00;;;;;;;;;;;;;;;17.32;57.97;99881.16;5008973;28;1461;-56
2021/04/06 06:11:26;;;;;;;;;;;;;;;17.27;59.08;99870.06;5008490;28;1467;-58
2021/04/06 06:13:51;;;;;;;;;;;;;;;17.26;59.18;99868.38;5004027;28;1492;-58
2021/04/06 06:16:17;;;;;;;;;;;;;;;17.24;58.74;99867.69;5007116;28;1567;-58
2021/04/06 06:19:01;;;;;;;;;;;;;;;17.28;59.54;99869.06;5005324;28;1547;-60
2021/04/06 06:21:36;;;;;;;;;;;;;;;17.24;59.36;99862.34;4996007;28;1977;-60
2021/04/06 06:24:02;;;;;;;;;;;;;;;17.26;58.77;99874.56;4997021;28;1497;-60
2021/04/06 06:26:27;;;;;;;;;;;;;;;17.30;58.60;99869.78;5002399;28;1472;-59
2021/04/06 06:29:10;;;;;;;;;;;;;;;17.30;58.78;99867.09;5002130;28;1481;-56
2021/04/06 06:31:35;;;;;;;;;;;;;;;17.29;59.40;99855.56;5009349;28;1492;-57
2021/04/06 06:34:01;;;;;;;;;;;;;;;17.35;58.41;99854.16;5009746;28;1421;-55
2021/04/06 06:36:26;;;;;;;;;;;;;;;17.39;58.72;99844.84;5008245;28;997;-55
2021/04/06 06:39:00;;;;;;;;;;;;;;;17.34;58.51;99863.16;5007076;28;1365;-59
2021/04/06 06:41:26;;;;;;;;;;;;;;;17.27;59.21;99851.38;5008838;28;1955;-55
2021/04/06 06:43:52;;;;;;;;;;;;;;;17.18;57.63;99839.72;5004362;28;1551;-55
2021/04/06 06:46:20;;;;;;;;;;;;;;;17.19;57.26;99846.75;5016390;28;1488;-54
2021/04/06 06:48:56;;;;;;;;;;;;;;;17.19;57.19;99845.91;5018225;28;1480;-55
2021/04/06 06:51:27;;;;;;;;;;;;;;;17.20;57.91;99847.59;5011403;28;1502;-59
2021/04/06 06:53:52;;;;;;;;;;;;;;;17.19;57.53;99851.25;5007337;28;1418;-55
2021/04/06 06:56:17;;;;;;;;;;;;;;;17.19;58.15;99838.75;5016770;28;1250;-55
2021/04/06 06:58:43;;;;;;;;;;;;;;;17.20;57.79;99826.22;5005189;28;1721;-59
2021/04/06 07:01:25;;;;;;;;;;;;;;;17.23;57.49;99845.47;5005374;28;1898;-59
2021/04/06 07:04:03;;;;;;;;;;;;;;;17.23;56.72;99841.94;5003104;28;1697;-59
2021/04/06 07:06:28;;;;;;;;;;;;;;;17.27;57.59;99848.69;5005938;28;1545;-59
2021/04/06 07:08:54;;;;;;;;;;;;;;;17.23;56.39;99844.59;5007336;28;1629;-59
2021/04/06 07:11:20;;;;;;;;;;;;;;;17.24;56.81;99835.63;5014552;28;1277;-59
2021/04/06 07:13:46;;;;;;;;;;;;;;;17.24;57.31;99840.97;5011828;28;1780;-55
2021/04/06 07:16:13;;;;;;;;;;;;;;;17.27;57.35;99833.50;5013139;28;1430;-55
2021/04/06 07:18:40;;;;;;;;;;;;;;;17.26;57.32;99828.31;5006433;28;1684;-59
2021/04/06 07:21:07;;;;;;;;;;;;;;;17.25;56.06;99816.78;5012655;28;1910;-55
2021/04/06 07:23:42;;;;;;;;;;;;;;;17.24;56.09;99836.47;5011160;28;1481;-59
2021/04/06 07:26:10;;;;;;;;;;;;;;;17.25;56.58;99831.97;5003203;28;1062;-55
2021/04/06 07:28:36;;;;;;;;;;;;;;;17.26;56.42;99839.00;5013707;28;1488;-55
2021/04/06 07:31:02;;;;;;;;;;;;;;;17.27;56.06;99844.19;5004251;28;1646;-56
2021/04/06 07:33:29;;;;;;;;;;;;;;;17.24;56.24;99835.63;5009976;28;1520;-55
2021/04/06 07:35:55;;;;;;;;;;;;;;;17.25;56.41;99837.31;5007825;28;1438;-55
2021/04/06 07:38:21;;;;;;;;;;;;;;;17.27;56.29;99838.84;5008005;28;1453;-55
2021/04/06 07:40:46;;;;;;;;;;;;;;;17.29;56.78;99841.38;5003189;28;1955;-56
2021/04/06 07:43:12;;;;;;;;;;;;;;;17.32;56.67;99833.06;5002543;28;1705;-56
2021/04/06 07:45:38;;;;;;;;;;;;;;;17.27;56.13;99830.00;5006008;28;1429;-55
2021/04/06 07:48:03;;;;;;;;;;;;;;;17.30;55.88;99821.66;5010718;28;1635;-56
2021/04/06 07:50:37;;;;;;;;;;;;;;;17.30;56.02;99814.50;5009600;28;1597;-56
2021/04/06 07:53:21;;;;;;;;;;;;;;;17.34;55.18;99824.91;5011897;28;1536;-55
2021/04/06 07:55:47;;;;;;;;;;;;;;;17.31;55.82;99823.38;5008818;28;746;-59
2021/04/06 07:58:32;;;;;;;;;;;;;;;17.32;56.09;99824.19;5013876;28;1577;-55
2021/04/06 08:01:05;;;;;;;;;;;;;;;17.29;55.79;99806.66;4999585;28;1890;-55
2021/04/06 08:03:48;;;;;;;;;;;;;;;17.27;56.26;99805.94;5011195;28;1566;-55
2021/04/06 08:06:18;;;;;;;;;;;;;;;17.24;55.35;99804.41;5008871;28;1477;-59
2021/04/06 08:08:43;;;;;;;;;;;;;;;17.21;55.33;99803.84;5012080;28;1386;-59
2021/04/06 08:11:08;;;;;;;;;;;;;;;17.22;56.13;99795.69;5014773;28;1498;-55
2021/04/06 08:13:35;;;;;;;;;;;;;;;17.23;56.26;99800.06;5012864;28;1300;-55
2021/04/06 08:16:17;;;;;;;;;;;;;;;17.18;55.26;99791.63;5005337;28;1622;-55
2021/04/06 08:18:51;;;;;;;;;;;;;;;17.22;56.11;99789.50;5012649;28;1670;-55
2021/04/06 08:21:17;;;;;;;;;;;;;;;17.20;54.61;99796.84;5008951;28;1973;-55
2021/04/06 08:23:44;;;;;;;;;;;;;;;17.18;53.87;99788.13;5015305;28;1512;-59
2021/04/06 08:26:26;;;;;;;;;;;;;;;17.23;53.00;99797.38;5015811;28;1620;-55
2021/04/06 08:28:51;;;;;;;;;;;;;;;17.31;53.08;99788.63;5014925;28;1468;-55
2021/04/06 08:31:27;;;;;;;;;;;;;;;17.28;53.79;99789.75;5006813;28;1192;-55
2021/04/06 08:33:53;;;;;;;;;;;;;;;17.27;53.93;99793.44;5007976;28;1687;-58
2021/04/06 08:36:26;;;;;;;;;;;;;;;17.27;53.90;99781.91;5012920;28;1562;-58
2021/04/06 08:38:52;;;;;;;;;;;;;;;17.25;53.30;99786.56;5005211;28;1521;-55
2021/04/06 08:41:24;;;;;;;;;;;;;;;17.22;54.42;99776.16;5020359;28;1886;-59
2021/04/06 08:43:52;;;;;;;;;;;;;;;17.21;53.57;99778.00;5006734;28;1441;-59
2021/04/06 08:46:43;;;;;;;;;;;;;;;17.19;53.12;99779.09;5013106;28;1469;-56
2021/04/06 08:49:16;;;;;;;;;;;;;;;17.19;53.72;99763.94;5006789;28;1446;-59
2021/04/06 08:51:46;;;;;;;;;;;;;;;17.18;53.95;99756.06;5006434;28;1559;-59
2021/04/06 08:54:12;;;;;;;;;;;;;;;17.22;51.69;99757.44;5008357;28;1517;-55
2021/04/06 08:56:45;;;;;;;;;;;;;;;17.18;52.51;99756.91;5015167;28;1627;-56
2021/04/06 08:59:11;;;;;;;;;;;;;;;17.21;53.02;99755.75;5011640;28;1660;-59
2021/04/06 09:01:36;;;;;;;;;;;;;;;17.20;52.84;99762.09;5010578;28;1915;-55
2021/04/06 09:04:18;;;;;;;;;;;;;;;17.21;53.73;99737.91;5012240;28;1517;-59
2021/04/06 09:06:44;;;;;;;;;;;;;;;17.19;54.80;99755.06;5007804;28;1557;-59
2021/04/06 09:09:11;;;;;;;;;;;;;;;17.19;55.02;99752.38;5015067;28;1709;-59
2021/04/06 09:11:37;;;;;;;;;;;;;;;17.17;53.67;99738.34;5015031;28;1606;-56
2021/04/06 09:14:03;;;;;;;;;;;;;;;17.19;53.73;99741.69;5007230;28;1340;-59
2021/04/06 09:16:32;;;;;;;;;;;;;;;17.18;54.94;99734.69;5015029;28;1553;-55
2021/04/06 09:18:59;;;;;;;;;;;;;;;17.17;54.42;99738.34;5004223;28;1438;-59
2021/04/06 09:21:28;;;;;;;;;;;;;;;17.16;54.81;99739.34;5012824;28;1918;-55
2021/04/06 09:23:54;;;;;;;;;;;;;;;17.14;53.76;99728.81;5002088;28;1617;-59
2021/04/06 09:26:20;;;;;;;;;;;;;;;17.15;55.22;99743.84;5014560;28;1582;-59
2021/04/06 09:28:46;;;;;;;;;;;;;;;17.12;53.52;99732.63;5012132;28;1584;-59
2021/04/06 09:31:11;;;;;;;;;;;;;;;17.12;54.56;99722.75;5012109;28;1665;-58
2021/04/06 09:33:38;;;;;;;;;;;;;;;17.12;53.98;99724.59;5006524;28;1681;-56
2021/04/06 09:36:03;;;;;;;;;;;;;;;17.11;52.70;99723.78;5010509;28;1625;-59
2021/04/06 09:38:29;;;;;;;;;;;;;;;17.09;54.25;99707.88;5009908;28;1568;-59
2021/04/06 09:40:55;;;;;;;;;;;;;;;17.13;54.81;99704.91;5010002;28;1952;-55
2021/04/06 09:43:20;;;;;;;;;;;;;;;17.15;54.41;99709.13;5005378;28;1819;-55
2021/04/06 09:45:49;;;;;;;;;;;;;;;17.16;53.94;99694.75;5012849;28;1568;-55
2021/04/06 09:48:16;;;;;;;;;;;;;;;17.14;53.46;99699.41;5008333;28;1492;-59
2021/04/06 09:50:56;;;;;;;;;;;;;;;17.08;53.17;99700.84;5008452;28;1602;-56
2021/04/06 09:53:22;;;;;;;;;;;;;;;17.08;54.50;99687.50;5010227;28;1469;-55
2021/04/06 09:55:47;;;;;;;;;;;;;;;17.09;54.00;99699.88;5008970;28;868;-55
2021/04/06 09:58:13;;;;;;;;;;;;;;;17.09;53.73;99688.34;5007751;28;1473;-59
2021/04/06 10:00:38;;;;;;;;;;;;;;;17.06;53.38;99685.97;5005338;28;1944;-59
2021/04/06 10:03:11;;;;;;;;;;;;;;;17.10;53.68;99687.34;5011628;28;1677;-59
2021/04/06 10:05:38;;;;;;;;;;;;;;;17.05;53.53;99681.59;5013875;28;1532;-56
2021/04/06 10:08:03;;;;;;;;;;;;;;;17.08;54.77;99684.00;5011700;28;1677;-55
2021/04/06 10:10:30;;;;;;;;;;;;;;;17.07;53.38;99677.81;5007202;28;1554;-59
2021/04/06 10:12:56;;;;;;;;;;;;;;;17.05;54.13;99669.09;5011423;28;1550;-55
2021/04/06 10:15:22;;;;;;;;;;;;;;;17.04;51.96;99680.78;5007732;28;1503;-59
2021/04/06 10:17:48;;;;;;;;;;;;;;;17.07;52.58;99667.13;5006689;28;1494;-55
2021/04/06 10:20:18;;;;;;;;;;;;;;;17.07;53.01;99672.47;5011607;28;1560;-59
2021/04/06 10:22:46;;;;;;;;;;;;;;;17.05;54.06;99666.44;5011664;28;1927;-59
2021/04/06 10:25:13;;;;;;;;;;;;;;;17.07;53.64;99675.13;5006344;28;897;-55
2021/04/06 10:27:42;;;;;;;;;;;;;;;17.06;53.29;99672.63;5010578;28;1469;-55
2021/04/06 10:30:09;;;;;;;;;;;;;;;17.02;52.33;99666.72;5004773;28;1493;-55
2021/04/06 10:32:38;;;;;;;;;;;;;;;17.03;51.17;99667.56;5005687;28;1557;-55
2021/04/06 10:35:06;;;;;;;;;;;;;;;16.99;51.05;99656.34;5003351;28;1621;-55
2021/04/06 10:37:43;;;;;;;;;;;;;;;17.01;50.59;99659.72;5009144;28;1520;-55
2021/04/06 10:40:27;;;;;;;;;;;;;;;16.98;51.16;99649.31;5003807;28;1072;-55
2021/04/06 10:42:54;;;;;;;;;;;;;;;16.98;50.27;99656.50;5000852;28;1949;-55
2021/04/06 10:45:20;;;;;;;;;;;;;;;16.98;51.98;99646.66;5004918;28;1570;-58
2021/04/06 10:47:49;;;;;;;;;;;;;;;17.00;51.40;99649.19;5004778;28;1570;-59
2021/04/06 10:50:14;;;;;;;;;;;;;;;16.97;51.64;99641.44;5003544;28;1574;-59
2021/04/06 10:52:39;;;;;;;;;;;;;;;16.98;52.18;99638.63;5011487;28;1592;-59
2021/04/06 10:55:06;;;;;;;;;;;;;;;16.98;53.06;99654.66;5005986;28;849;-59
2021/04/06 10:57:32;;;;;;;;;;;;;;;16.97;52.22;99647.66;5010468;28;1537;-59
2021/04/06 11:00:14;;;;;;;;;;;;;;;16.98;51.70;99643.16;5003798;28;1500;-59
2021/04/06 11:02:39;;;;;;;;;;;;;;;16.96;52.09;99642.47;5002893;28;1894;-59
2021/04/06 11:05:04;;;;;;;;;;;;;;;17.00;52.20;99639.31;5013105;28;1481;-59
2021/04/06 11:07:30;;;;;;;;;;;;;;;16.97;50.80;99639.66;5012893;28;1540;-56
2021/04/06 11:10:03;;;;;;;;;;;;;;;16.98;50.95;99643.97;5013148;28;1700;-59
2021/04/06 11:12:28;;;;;;;;;;;;;;;16.93;50.69;99622.25;5013099;28;1655;-55
2021/04/06 11:14:53;;;;;;;;;;;;;;;17.01;51.08;99621.47;5011798;28;1654;-57
2021/04/06 11:17:19;;;;;;;;;;;;;;;17.06;51.71;99622.69;5010030;28;1520;-60
2021/04/06 11:19:45;;;;;;;;;;;;;;;17.06;51.43;99611.19;5004804;28;1574;-61
2021/04/06 11:22:12;;;;;;;;;;;;;;;17.04;52.57;99611.31;5005206;28;1906;-60
2021/04/06 11:24:38;;;;;;;;;;;;;;;17.09;51.00;99614.41;5008828;28;1328;-55
2021/04/06 11:27:04;;;;;;;;;;;;;;;17.07;51.55;99608.38;5009034;28;1555;-56
2021/04/06 11:29:31;;;;;;;;;;;;;;;17.02;51.68;99599.13;5008342;28;1449;-57
2021/04/06 11:31:58;;;;;;;;;;;;;;;17.03;52.81;99592.78;5014272;28;1659;-57
2021/04/06 11:34:23;;;;;;;;;;;;;;;16.95;52.09;99590.88;5013791;28;1382;-56
2021/04/06 11:36:49;;;;;;;;;;;;;;;16.98;53.16;99592.41;5013638;28;1568;-57
2021/04/06 11:39:15;;;;;;;;;;;;;;;17.04;52.03;99586.44;5015520;28;1521;-56
2021/04/06 11:41:41;;;;;;;;;;;;;;;17.03;51.29;99601.66;5014174;28;1949;-55
2021/04/06 11:44:07;;;;;;;;;;;;;;;16.81;52.27;99569.97;5011397;28;1594;-56
2021/04/06 11:46:33;;;;;;;;;;;;;;;16.58;50.82;99573.06;5009417;28;1315;-55
2021/04/06 11:48:58;;;;;;;;;;;;;;;16.46;51.51;99575.09;5013062;28;1439;-55
2021/04/06 11:51:24;;;;;;;;;;;;;;;16.42;51.52;99578.22;5013419;28;1568;-55
2021/04/06 11:53:49;;;;;;;;;;;;;;;16.37;51.62;99565.31;5012009;28;1544;-56
2021/04/06 11:56:15;;;;;;;;;;;;;;;16.36;52.71;99558.31;5017135;28;1021;-56
2021/04/06 11:58:40;;;;;;;;;;;;;;;16.32;52.74;99556.09;5013130;28;1555;-55
2021/04/06 12:01:06;;;;;;;;;;;;;;;16.55;50.71;99554.69;5012363;28;1894;-55
2021/04/06 12:03:31;;;;;;;;;;;;;;;16.70;50.93;99565.69;5014977;28;1423;-55
2021/04/06 12:05:56;;;;;;;;;;;;;;;16.86;50.86;99568.56;5014678;28;1532;-51
2021/04/06 12:08:22;;;;;;;;;;;;;;;16.93;51.71;99536.78;5013706;28;1398;-58
2021/04/06 12:10:48;;;;;;;;;;;;;;;16.98;50.43;99537.16;5018596;28;1457;-55
2021/04/06 12:13:14;;;;;;;;;;;;;;;17.00;50.22;99529.81;5014893;28;1481;-55
2021/04/06 12:15:39;;;;;;;;;;;;;;;17.07;51.36;99524.72;5007998;28;1496;-55
2021/04/06 12:18:05;;;;;;;;;;;;;;;17.15;48.68;99527.47;5013052;28;1532;-55
2021/04/06 12:20:30;;;;;;;;;;;;;;;17.21;50.08;99520.66;5011842;28;1774;-55
2021/04/06 12:22:56;;;;;;;;;;;;;;;17.23;50.75;99505.31;5012789;28;2019;-56
2021/04/06 12:25:21;;;;;;;;;;;;;;;17.30;49.83;99495.69;5008062;28;1510;-55
2021/04/06 12:27:46;;;;;;;;;;;;;;;17.30;50.36;99493.03;5012324;28;1607;-55
2021/04/06 12:30:12;;;;;;;;;;;;;;;17.20;50.28;99484.25;5012309;28;1540;-55
2021/04/06 12:32:37;;;;;;;;;;;;;;;17.02;49.24;99474.44;5010005;28;1575;-55
2021/04/06 12:35:03;;;;;;;;;;;;;;;17.02;49.14;99478.94;5013439;28;1790;-55
2021/04/06 12:37:31;;;;;;;;;;;;;;;17.01;50.10;99477.25;5004950;28;1529;-54
2021/04/06 12:39:56;;;;;;;;;;;;;;;17.01;49.71;99461.22;5007479;28;1330;-55
2021/04/06 12:42:21;;;;;;;;;;;;;;;17.05;49.68;99468.78;5013897;28;1885;-55
2021/04/06 12:44:47;;;;;;;;;;;;;;;17.01;49.46;99462.09;5005221;28;1562;-56
2021/04/06 12:47:12;;;;;;;;;;;;;;;17.00;50.44;99444.38;5011123;28;1473;-55
2021/04/06 12:49:37;;;;;;;;;;;;;;;16.98;48.59;99441.00;4663026;28;10000200;-56
2021/04/06 12:52:03;;;;;;;;;;;;;;;16.94;48.72;99434.31;5021546;28;1497;-55
2021/04/06 12:54:28;;;;;;;;;;;;;;;16.99;48.12;99441.84;5009784;28;1629;-62
2021/04/06 12:56:54;;;;;;;;;;;;;;;16.97;50.24;99418.00;5009357;28;1540;-64